ARBÚCIES (La Selva)





Hora UTC 19:00
Temperatura 4.9 ºC
Humedad 70.1 %
Presión 1010.0 hPa
Pluja 1.5 mm
Velocidad viento 0.0 km/h
Dirección viento N
Radiación solar 0.0 W/m²

Datos diarios 2024-02-23



Hora UTC (invierno +1h; verano +2h)
Temperatura (ºC) Humedad (%) Presión (hPa) Velocidad viento (km/h) Precipitación (mm) Radiación solar (W/m²)
Hora UTC Aire Humedad Presión Vel. Dir. Vel. Max Dir. Intent. máx 5 min. Rad. Sol.
00:05 10.5 87.5 1009.0 0.0 SW 0.4 WSW 0.0 0.0
00:10 10.5 87.8 1009.0 1.4 SSE 4.6 ENE 0.0 0.0
00:15 10.5 88.1 1009.0 0.0 NNE 0.7 N 0.0 0.0
00:20 10.4 88.3 1008.0 3.0 N 6.7 NE 0.1 0.0
00:25 10.4 88.7 1008.0 4.7 NNE 9.5 NNE 0.0 0.0
00:30 10.4 89.0 1008.0 6.1 N 11.3 N 0.0 0.0
00:35 10.3 89.0 1009.0 5.9 NE 11.6 ENE 0.0 0.0
00:40 10.2 88.8 1008.0 11.7 ENE 18.3 ENE 0.0 0.0
00:45 10.2 88.3 1008.0 12.2 ENE 18.7 ENE 0.1 0.0
00:50 10.2 88.4 1008.0 6.7 NE 13.1 NE 0.0 0.0
00:55 10.1 88.5 1008.0 5.1 N 10.2 NNE 0.0 0.0
01:00 10.1 88.6 1008.0 1.5 NNW 7.1 N 0.0 0.0
01:05 10.0 88.6 1008.0 3.2 N 7.8 N 0.0 0.0
01:10 10.0 88.7 1008.0 1.2 NNE 5.6 NNE 0.0 0.0
01:15 9.9 88.5 1008.0 9.1 NNW 14.8 NW 0.0 0.0
01:20 9.8 88.7 1008.0 8.5 NNE 21.5 ENE 0.0 0.0
01:25 9.8 88.8 1008.0 10.7 ENE 16.9 ENE 0.0 0.0
01:30 9.8 88.9 1008.0 10.7 ENE 20.5 NE 0.0 0.0
01:35 9.7 88.8 1008.0 6.3 E 18.0 E 0.0 0.0
01:40 9.7 89.0 1008.0 3.1 E 8.1 ENE 0.0 0.0
01:45 9.7 88.9 1009.0 6.4 ENE 10.2 ENE 0.0 0.0
01:50 9.6 88.7 1008.0 6.0 NNE 11.6 NE 0.1 0.0
01:55 9.4 88.8 1008.0 6.6 NE 12.7 ENE 0.0 0.0
02:00 9.2 88.8 1008.0 8.7 NE 18.0 NE 0.0 0.0
02:05 8.9 89.0 1008.0 6.6 ENE 12.0 ENE 0.0 0.0
02:10 8.7 89.4 1008.0 4.4 NNE 9.5 E 0.0 0.0
02:15 8.6 89.7 1009.0 5.8 NNE 10.6 NE 0.0 0.0
02:20 8.4 89.8 1008.0 4.9 NNE 9.2 NNE 0.0 0.0
02:25 8.3 90.1 1008.0 5.9 NNE 9.9 NNE 0.0 0.0
02:30 8.2 90.2 1008.0 5.3 NNE 9.2 NE 0.0 0.0
02:35 8.1 90.4 1008.0 4.3 NNE 10.2 NE 0.1 0.0
02:40 7.9 90.5 1008.0 4.8 N 12.7 NE 0.0 0.0
02:45 7.8 90.5 1009.0 0.0 N 0.7 NNW 0.0 0.0
02:50 7.7 90.6 1007.0 0.5 NNE 4.6 NE 0.0 0.0
02:55 7.7 90.7 1008.0 3.4 NNW 7.8 N 0.0 0.0
03:00 7.6 90.9 1008.0 3.9 NNW 8.8 N 0.0 0.0
03:05 7.5 90.9 1008.0 9.2 NE 18.7 NE 0.0 0.0
03:10 7.4 91.2 1008.0 5.8 NNE 13.1 NE 0.0 0.0
03:15 7.4 91.2 1008.0 8.4 NNE 14.5 NNE 0.0 0.0
03:20 7.3 91.3 1008.0 8.0 NNE 16.6 NNE 0.1 0.0
03:25 7.2 91.3 1008.0 8.0 NNE 12.7 NNE 0.0 0.0
03:30 7.1 91.5 1008.0 5.3 NNE 10.9 N 0.0 0.0
03:35 7.0 91.4 1008.0 6.4 N 13.4 N 0.0 0.0
03:40 7.0 91.5 1008.0 6.4 NNE 10.2 N 0.0 0.0
03:45 6.9 91.6 1009.0 4.9 N 10.6 NNE 0.1 0.0
03:50 7.0 91.6 1008.0 5.2 N 7.8 NNW 0.0 0.0
03:55 6.9 91.7 1008.0 2.4 N 6.4 NNW 0.0 0.0
04:00 6.8 91.5 1008.0 5.2 N 9.5 NW 0.0 0.0
04:05 6.8 91.6 1008.0 4.8 N 8.8 N 0.5 0.0
04:10 6.8 91.7 1008.0 3.4 N 7.1 N 0.2 0.0
04:15 6.8 91.7 1009.0 2.9 NNE 5.6 NNE 0.0 0.0
04:20 6.8 91.7 1008.0 1.1 N 3.9 NNE 0.0 0.0
04:25 6.8 91.8 1008.0 3.6 NE 7.8 NE 0.0 0.0
04:30 6.8 91.7 1008.0 1.2 NNE 4.9 NNE 0.0 0.0
04:35 6.7 91.7 1008.0 0.0 NE 0.4 NNE 0.0 0.0
04:40 6.7 91.7 1008.0 0.0 NE 0.4 ENE 0.1 0.0
04:45 6.7 91.9 1009.0 0.2 NNE 3.9 N 0.0 0.0
04:50 6.8 91.9 1008.0 2.6 NNE 6.7 NNE 0.0 0.0
04:55 6.7 91.9 1009.0 5.3 N 8.8 NNE 0.0 0.0
05:00 6.5 91.6 1008.0 6.8 NNE 10.9 NE 0.1 0.0
05:05 6.3 91.7 1009.0 5.7 NE 11.6 ENE 0.0 0.0
05:10 6.2 91.6 1009.0 3.0 NE 7.8 NE 0.0 0.0
05:15 6.0 91.2 1009.0 4.8 N 9.2 NNW 0.0 0.1
05:20 5.8 90.9 1009.0 5.2 N 8.5 NNW 0.0 0.8
05:25 5.6 90.6 1009.0 2.2 NNW 6.0 N 0.0 1.3
05:30 5.6 90.5 1009.0 1.0 NE 4.6 NE 0.0 1.2
05:35 5.5 90.1 1009.0 2.0 N 7.4 NNW 0.0 1.3
05:40 5.5 89.8 1009.0 2.9 NE 6.0 NNE 0.0 1.1
05:45 5.4 89.4 1009.0 4.0 ENE 7.1 NE 0.0 1.3
05:50 5.4 89.2 1009.0 1.3 NE 5.6 ENE 0.0 0.8
05:55 5.4 89.1 1009.0 0.0 NW 0.4 NNW 0.0 0.6
06:00 5.4 89.0 1009.0 0.1 WSW 1.1 S 0.0 0.6
06:05 5.4 89.0 1009.0 0.6 NW 4.2 ENE 0.0 0.6
06:10 5.3 88.5 1010.0 3.8 ENE 6.7 ENE 0.0 1.2
06:15 5.3 88.6 1009.0 3.2 ENE 7.8 NE 0.0 1.2
06:20 5.4 88.6 1009.0 3.0 ENE 7.1 NE 0.0 1.0
06:25 5.5 88.8 1009.0 1.3 ENE 5.6 ENE 0.0 0.6
06:30 5.5 89.0 1009.0 1.7 ENE 5.6 ENE 0.0 0.6
06:35 5.5 89.1 1009.0 0.5 NE 2.8 NE 0.0 0.8
06:40 5.5 89.0 1010.0 0.1 NNE 2.1 N 0.0 1.2
06:45 5.5 89.1 1010.0 0.0 ESE 0.4 NE 0.0 1.7
06:50 5.5 89.2 1010.0 0.1 E 1.8 E 0.0 2.0
06:55 5.5 89.2 1010.0 0.1 ESE 1.1 SE 0.0 2.7
07:00 5.5 89.4 1010.0 0.1 ESE 1.1 E 0.0 4.1
07:05 5.6 89.5 1009.0 0.0 ENE 0.4 ENE 0.0 6.7
07:10 5.5 89.1 1010.0 1.1 E 3.5 SE 0.0 12.8
07:15 5.6 89.6 1010.0 1.3 N 2.8 NNE 0.0 19.9
07:20 5.7 89.4 1010.0 0.1 NNW 1.4 NNW 0.0 16.6
07:25 5.6 89.3 1010.0 0.0 NNW 0.4 N 0.0 34.6
07:30 5.7 89.5 1010.0 2.0 WNW 5.3 WNW 0.0 53.8
07:35 5.7 89.4 1010.0 2.8 NW 5.6 WNW 0.0 66.5
07:40 5.7 89.3 1011.0 1.0 NNW 2.8 NNW 0.0 56.1
07:45 5.7 89.1 1010.0 0.0 NNE 0.4 NNW 0.0 41.0
07:50 5.7 89.2 1010.0 0.0 NNE 0.4 ENE 0.0 50.7
07:55 5.7 89.2 1010.0 3.0 NE 7.1 NE 0.0 44.5
08:00 5.8 89.2 1010.0 4.4 NE 9.2 E 0.0 51.2
08:05 5.7 88.8 1011.0 6.4 ENE 10.6 ENE 0.0 77.5
08:10 5.7 88.7 1011.0 5.1 ENE 7.8 ENE 0.0 173.4
08:15 5.9 88.7 1010.0 1.2 E 3.5 E 0.0 193.7
08:20 6.2 88.3 1010.0 0.1 ESE 1.4 E 0.0 197.9
08:25 6.2 87.5 1010.0 0.1 SW 1.4 WSW 0.0 169.3
08:30 6.3 87.1 1010.0 0.3 SW 2.1 SW 0.0 140.8
08:35 6.4 86.9 1011.0 0.0 SSW 0.4 SSW 0.0 194.0
08:40 6.6 86.5 1011.0 0.3 SSW 4.6 SSW 0.0 202.1
08:45 6.6 85.3 1010.0 2.5 SSW 5.6 SW 0.0 195.7
08:50 6.9 85.2 1010.0 2.3 SW 5.3 SW 0.0 257.0
08:55 7.0 84.2 1011.0 1.6 WSW 3.5 W 0.0 455.8
09:00 7.4 83.5 1010.0 3.1 SSW 6.0 SW 0.0 371.0
09:05 7.6 81.6 1010.0 1.4 S 4.2 SSE 0.0 151.9
09:10 7.2 80.1 1011.0 3.6 SE 4.6 SSE 0.0 150.5
09:15 7.3 81.5 1010.0 2.1 ESE 3.9 SE 0.0 437.2
09:20 7.7 78.9 1010.0 1.8 E 4.9 ENE 0.0 445.0
09:25 8.3 78.2 1010.0 2.1 E 8.1 ESE 0.0 498.9
09:30 8.1 75.5 1010.0 6.1 E 12.3 ENE 0.0 332.6
09:35 8.0 76.8 1010.0 8.4 ENE 11.6 ENE 0.0 530.5
09:40 8.3 76.6 1011.0 4.7 NE 8.1 ENE 0.0 522.8
09:45 8.5 74.3 1010.0 4.3 NE 6.4 ENE 0.0 521.2
09:50 8.6 73.7 1010.0 3.7 NE 6.0 ENE 0.0 522.9
09:55 9.0 71.5 1010.0 4.0 NE 8.1 ENE 0.0 546.1
10:00 9.2 69.7 1010.0 2.6 E 10.2 ENE 0.0 544.5
10:05 9.5 68.3 1010.0 6.4 E 11.3 ESE 0.0 563.9
10:10 9.5 63.4 1011.0 6.0 SSW 13.8 SSE 0.0 265.1
10:15 9.5 59.1 1010.0 11.8 SW 23.3 WSW 0.0 196.0
10:20 9.2 59.2 1010.0 8.8 SSW 18.7 SW 0.0 161.3
10:25 9.0 57.3 1010.0 9.4 SSW 19.1 SSW 0.0 154.9
10:30 9.0 56.5 1010.0 9.9 SSW 17.6 SW 0.0 129.2
10:35 9.1 56.1 1010.0 2.4 SW 8.5 SSE 0.0 148.4
10:40 9.2 56.9 1011.0 5.9 ENE 13.1 ENE 0.0 173.4
10:45 9.1 60.0 1010.0 5.0 ENE 9.9 NE 0.0 203.3
10:50 9.0 62.7 1010.0 6.2 NE 9.5 ENE 0.0 168.2
10:55 9.2 64.7 1010.0 3.3 NNE 8.1 NE 0.0 245.5
11:00 9.5 62.9 1010.0 3.1 ESE 8.1 E 0.0 651.1
11:05 9.9 59.8 1010.0 6.0 ENE 13.4 WNW 0.0 670.9
11:10 10.0 57.5 1011.0 5.3 NW 11.6 WNW 0.0 661.0
11:15 10.6 50.3 1010.0 4.3 WSW 15.5 SW 0.0 671.3
11:20 11.3 44.7 1010.0 4.1 NNE 10.2 NNE 0.0 674.5
11:25 11.6 45.7 1010.0 6.3 NE 16.2 ENE 0.0 681.4
11:30 11.3 52.5 1010.0 9.7 NE 15.5 NE 0.0 693.8
11:35 11.4 53.7 1010.0 9.6 ENE 17.6 NE 0.0 709.9
11:40 11.2 52.8 1010.0 6.8 E 18.0 NE 0.0 512.8
11:45 10.6 54.6 1010.0 7.1 NE 15.9 NE 0.0 506.1
11:50 10.7 53.9 1010.0 9.0 ENE 15.9 ENE 0.0 634.5
11:55 10.5 52.9 1010.0 12.9 ENE 22.2 ENE 0.0 387.6
12:00 10.6 51.6 1009.0 9.6 ENE 16.2 NE 0.0 681.4
12:05 11.1 49.4 1010.0 4.3 E 9.5 E 0.0 473.9
12:10 11.4 48.0 1010.0 5.0 ENE 13.1 ENE 0.0 341.6
12:15 11.1 47.8 1009.0 5.4 ENE 12.7 NE 0.0 336.7
12:20 11.1 48.1 1009.0 3.7 NE 8.8 ENE 0.0 418.1
12:25 11.3 41.9 1009.0 5.6 SSW 23.3 S 0.0 331.7
12:30 11.7 34.2 1009.0 15.1 WSW 29.6 SW 0.0 646.8
12:35 12.2 33.6 1009.0 13.5 SW 26.8 SW 0.0 699.2
12:40 12.4 32.5 1009.0 11.1 WSW 26.8 WSW 0.0 730.2
12:45 12.6 32.1 1009.0 11.8 SW 27.2 W 0.0 691.7
12:50 12.5 32.2 1009.0 15.4 SW 30.7 SSW 0.0 701.2
12:55 12.7 32.0 1008.0 14.8 SW 38.8 SW 0.0 627.8
13:00 12.5 32.2 1008.0 13.6 SW 33.5 SSW 0.0 569.3
13:05 12.6 32.7 1008.0 11.8 SW 23.6 WSW 0.0 592.7
13:10 12.7 32.8 1009.0 11.2 SW 26.8 SW 0.0 656.5
13:15 12.9 32.5 1008.0 10.3 SSW 25.4 S 0.0 663.2
13:20 13.2 31.8 1008.0 15.6 SW 32.8 SSW 0.0 640.3
13:25 12.8 31.4 1008.0 18.1 SW 33.9 SSW 0.0 614.9
13:30 12.9 32.3 1008.0 12.5 SW 30.3 SW 0.0 578.3
13:35 12.9 31.2 1008.0 17.5 SW 33.2 SSW 0.0 616.9
13:40 13.1 31.6 1009.0 9.0 SW 21.9 SW 0.0 616.6
13:45 13.4 30.8 1008.0 11.7 SW 27.2 SW 0.0 500.3
13:50 13.1 31.5 1008.0 14.3 SSW 28.6 SSW 0.0 550.6
13:55 12.9 32.0 1008.0 12.8 SW 22.6 SSE 0.0 277.5
14:00 12.7 32.1 1008.0 8.6 SSW 26.5 S 0.0 427.1
14:05 13.2 31.6 1008.0 6.3 SW 13.1 WSW 0.0 523.6
14:10 13.4 30.8 1009.0 11.5 SW 29.6 SW 0.0 544.9
14:15 13.3 30.7 1008.0 12.4 SW 28.6 SW 0.0 385.7
14:20 12.9 31.0 1008.0 10.1 SW 24.7 SW 0.0 91.4
14:25 12.4 31.8 1008.0 13.5 SW 24.0 SSW 0.0 83.5
14:30 12.2 32.3 1008.0 10.1 SW 19.4 SW 0.0 75.4
14:35 12.1 32.5 1008.0 10.6 SW 20.5 SW 0.0 72.3
14:40 12.1 33.5 1009.0 7.7 SW 19.1 WSW 0.0 116.5
14:45 12.1 33.4 1008.0 7.2 SW 14.5 SSW 0.0 102.0
14:50 12.2 33.7 1008.0 4.2 WSW 11.6 SW 0.0 108.6
14:55 12.2 34.0 1008.0 7.9 SW 19.1 W 0.0 133.2
15:00 12.3 33.2 1008.0 11.4 SW 23.3 SW 0.0 120.8
15:05 12.4 32.8 1008.0 7.6 SW 16.9 SSW 0.0 116.8
15:10 12.4 33.0 1009.0 9.5 SW 18.3 SW 0.0 104.8
15:15 12.4 32.9 1008.0 8.8 SW 22.6 SSW 0.0 96.7
15:20 12.3 33.3 1008.0 8.2 SW 22.6 SW 0.0 204.9
15:25 12.9 32.8 1008.0 7.2 SW 18.3 SSW 0.0 311.4
15:30 13.0 31.6 1008.0 5.6 WSW 17.3 SW 0.0 150.4
15:35 13.0 31.9 1008.0 8.3 SW 20.8 SW 0.0 136.4
15:40 12.7 32.6 1009.0 11.1 SSW 24.3 SSW 0.0 90.6
15:45 12.4 33.2 1008.0 12.7 SW 27.2 SSW 0.0 89.3
15:50 12.2 34.2 1008.0 10.0 SW 32.8 SSW 0.0 92.0
15:55 12.1 33.8 1008.0 15.0 SW 26.8 WSW 0.0 78.2
16:00 12.2 33.4 1008.0 12.7 SW 23.6 WSW 0.0 217.0
16:05 12.6 32.8 1008.0 11.0 SW 23.3 SW 0.0 243.4
16:10 12.8 32.2 1009.0 9.7 SW 20.8 SW 0.0 227.7
16:15 12.7 32.9 1008.0 7.3 WSW 15.9 SW 0.0 209.2
16:20 12.8 31.8 1008.0 8.1 SW 20.5 SW 0.0 195.8
16:25 12.7 31.2 1008.0 8.9 SW 16.2 SSW 0.0 155.3
16:30 12.3 30.8 1008.0 9.9 W 21.9 SW 0.0 45.6
16:35 12.1 31.2 1008.0 5.2 W 10.6 WNW 0.0 42.8
16:40 12.0 31.4 1009.0 7.7 SW 19.8 WSW 0.0 41.6
16:45 11.9 31.6 1008.0 4.2 SSW 10.9 S 0.0 40.5
16:50 11.8 32.9 1008.0 6.8 SW 19.1 S 0.0 36.6
16:55 11.6 32.8 1009.0 3.3 SW 8.5 WSW 0.0 30.9
17:00 11.6 33.5 1009.0 1.1 SW 9.9 WSW 0.0 24.6
17:05 11.0 40.8 1009.0 0.0 SSW 1.4 SW 0.0 21.3
17:10 10.4 43.1 1009.0 0.8 SE 4.9 SE 0.0 17.7
17:15 9.7 48.5 1009.0 1.2 SW 5.3 SW 0.0 13.8
17:20 9.3 49.9 1009.0 2.5 SW 4.9 SW 0.0 10.3
17:25 9.0 51.1 1009.0 1.3 S 4.9 SSW 0.0 7.1
17:30 8.5 54.3 1009.0 4.5 SW 7.8 SW 0.0 2.8
17:35 7.9 56.4 1009.0 4.1 SW 6.4 SW 0.0 0.3
17:40 7.5 58.7 1010.0 3.2 SW 6.0 SW 0.0 0.0
17:45 7.3 60.0 1010.0 0.3 W 3.2 WNW 0.0 0.0
17:50 7.2 59.8 1009.0 1.9 SW 7.8 SW 0.0 0.0
17:55 6.9 59.6 1010.0 4.9 SW 7.4 SW 0.0 0.0
18:00 6.7 60.2 1010.0 0.7 SSW 3.9 SSE 0.0 0.0
18:05 6.5 62.1 1010.0 6.0 SW 11.3 SW 0.0 0.0
18:10 6.2 63.2 1011.0 6.1 SW 8.5 SW 0.0 0.0
18:15 6.0 63.6 1010.0 4.7 SW 7.8 SSW 0.0 0.0
18:20 5.8 65.1 1010.0 6.5 SW 8.8 SW 0.0 0.0
18:25 5.5 67.0 1010.0 4.8 WSW 7.8 SW 0.0 0.0
18:30 5.5 67.4 1010.0 6.5 SSW 10.6 SW 0.0 0.0
18:35 6.0 65.2 1010.0 7.5 SSW 10.9 SSW 0.0 0.0
18:40 6.0 65.3 1011.0 7.1 SSW 10.6 SSW 0.0 0.0
18:45 5.6 67.4 1010.0 2.9 SW 6.7 SW 0.0 0.0
18:50 5.4 68.8 1010.0 0.0 NNE 0.4 E 0.0 0.0
18:55 5.1 69.1 1010.0 0.0 WNW 0.4 WNW 0.0 0.0
19:00 4.9 70.1 1010.0 0.0 N 0.4 NW 0.0 0.0
Máxima 13.4 91.9 1011.0 18.1 SW 38.8 SW 0.5 730.2
Mínima 4.9 30.7 1007.0
Total 1.5